sensor_id;sensor_type;location;lat;lon;timestamp;pressure;altitude;pressure_sealevel;temperature;humidity
24666;BME280;29726;53.532;-1.478;2023-02-15T00:01:10;101450.22;;;13.11;100.00
24666;BME280;29726;53.532;-1.478;2023-02-15T00:03:54;101448.03;;;13.06;100.00
24666;BME280;29726;53.532;-1.478;2023-02-15T00:06:38;101435.34;;;12.93;100.00
24666;BME280;29726;53.532;-1.478;2023-02-15T00:09:23;101428.81;;;12.96;100.00
24666;BME280;29726;53.532;-1.478;2023-02-15T00:12:07;101435.88;;;13.00;100.00
24666;BME280;29726;53.532;-1.478;2023-02-15T00:14:51;101429.59;;;12.96;100.00
24666;BME280;29726;53.532;-1.478;2023-02-15T00:17:35;101376.03;;;12.64;100.00
24666;BME280;29726;53.532;-1.478;2023-02-15T00:20:18;101419.94;;;12.97;100.00
24666;BME280;29726;53.532;-1.478;2023-02-15T00:23:03;101409.34;;;12.92;100.00
24666;BME280;29726;53.532;-1.478;2023-02-15T00:25:47;101407.56;;;12.86;100.00
24666;BME280;29726;53.532;-1.478;2023-02-15T00:28:31;101391.03;;;12.79;100.00
24666;BME280;29726;53.532;-1.478;2023-02-15T00:31:15;101389.81;;;12.80;100.00
24666;BME280;29726;53.532;-1.478;2023-02-15T00:34:10;101393.41;;;12.80;100.00
24666;BME280;29726;53.532;-1.478;2023-02-15T00:36:54;101389.28;;;12.72;100.00
24666;BME280;29726;53.532;-1.478;2023-02-15T00:39:38;101406.16;;;12.81;100.00
24666;BME280;29726;53.532;-1.478;2023-02-15T00:42:22;101396.13;;;12.71;100.00
24666;BME280;29726;53.532;-1.478;2023-02-15T00:45:07;101400.38;;;12.76;100.00
24666;BME280;29726;53.532;-1.478;2023-02-15T00:47:51;101402.84;;;12.74;100.00
24666;BME280;29726;53.532;-1.478;2023-02-15T00:50:34;101396.63;;;12.70;100.00
24666;BME280;29726;53.532;-1.478;2023-02-15T00:53:19;101390.97;;;12.61;100.00
24666;BME280;29726;53.532;-1.478;2023-02-15T00:56:03;101372.44;;;12.54;100.00
24666;BME280;29726;53.532;-1.478;2023-02-15T00:58:47;101370.06;;;12.53;100.00
24666;BME280;29726;53.532;-1.478;2023-02-15T01:01:31;101375.06;;;12.58;100.00
24666;BME280;29726;53.532;-1.478;2023-02-15T01:04:15;101318.59;;;12.20;100.00
24666;BME280;29726;53.532;-1.478;2023-02-15T01:06:59;101361.78;;;12.40;100.00
24666;BME280;29726;53.532;-1.478;2023-02-15T01:09:45;101384.88;;;12.53;100.00
24666;BME280;29726;53.532;-1.478;2023-02-15T01:12:29;101371.94;;;12.47;100.00
24666;BME280;29726;53.532;-1.478;2023-02-15T01:15:13;101359.69;;;12.32;100.00
24666;BME280;29726;53.532;-1.478;2023-02-15T01:17:57;101370.50;;;12.42;100.00
24666;BME280;29726;53.532;-1.478;2023-02-15T01:20:41;101363.75;;;12.31;100.00
24666;BME280;29726;53.532;-1.478;2023-02-15T01:23:25;101353.13;;;12.26;100.00
24666;BME280;29726;53.532;-1.478;2023-02-15T01:26:10;101366.84;;;12.33;100.00
24666;BME280;29726;53.532;-1.478;2023-02-15T01:28:54;101360.94;;;12.31;100.00
24666;BME280;29726;53.532;-1.478;2023-02-15T01:31:37;101338.63;;;12.18;100.00
24666;BME280;29726;53.532;-1.478;2023-02-15T01:34:22;101353.59;;;12.24;100.00
24666;BME280;29726;53.532;-1.478;2023-02-15T01:37:06;101344.09;;;12.22;100.00
24666;BME280;29726;53.532;-1.478;2023-02-15T01:39:50;101329.13;;;12.16;100.00
24666;BME280;29726;53.532;-1.478;2023-02-15T01:42:34;101346.91;;;12.22;100.00
24666;BME280;29726;53.532;-1.478;2023-02-15T01:45:45;101332.72;;;12.16;100.00
24666;BME280;29726;53.532;-1.478;2023-02-15T01:48:31;101252.22;;;11.68;100.00
24666;BME280;29726;53.532;-1.478;2023-02-15T01:51:18;101300.13;;;12.01;100.00
24666;BME280;29726;53.532;-1.478;2023-02-15T01:54:20;101314.47;;;12.12;100.00
24666;BME280;29726;53.532;-1.478;2023-02-15T01:57:09;101310.91;;;12.11;100.00
24666;BME280;29726;53.532;-1.478;2023-02-15T01:59:58;101295.78;;;12.00;100.00
24666;BME280;29726;53.532;-1.478;2023-02-15T02:02:46;101303.25;;;12.03;100.00
24666;BME280;29726;53.532;-1.478;2023-02-15T02:05:32;101247.88;;;11.67;100.00
24666;BME280;29726;53.532;-1.478;2023-02-15T02:08:16;101291.22;;;11.93;100.00
24666;BME280;29726;53.532;-1.478;2023-02-15T02:11:01;101283.44;;;11.88;100.00
24666;BME280;29726;53.532;-1.478;2023-02-15T02:13:45;101279.09;;;11.96;100.00
24666;BME280;29726;53.532;-1.478;2023-02-15T02:16:43;101284.59;;;12.00;100.00
24666;BME280;29726;53.532;-1.478;2023-02-15T02:35:57;101241.38;;;11.79;100.00
24666;BME280;29726;53.532;-1.478;2023-02-15T02:42:08;101223.53;;;11.77;100.00
24666;BME280;29726;53.532;-1.478;2023-02-15T02:45:05;101212.59;;;11.70;100.00
24666;BME280;29726;53.532;-1.478;2023-02-15T02:47:54;101216.22;;;11.79;100.00
24666;BME280;29726;53.532;-1.478;2023-02-15T02:50:40;101209.84;;;11.79;100.00
24666;BME280;29726;53.532;-1.478;2023-02-15T02:53:26;101202.50;;;11.72;100.00
24666;BME280;29726;53.532;-1.478;2023-02-15T02:56:21;101198.03;;;11.75;100.00
24666;BME280;29726;53.532;-1.478;2023-02-15T02:59:19;101192.25;;;11.69;100.00
24666;BME280;29726;53.532;-1.478;2023-02-15T03:02:09;101197.72;;;11.73;100.00
24666;BME280;29726;53.532;-1.478;2023-02-15T03:05:01;101184.78;;;11.66;100.00
24666;BME280;29726;53.532;-1.478;2023-02-15T03:07:50;101182.31;;;11.68;100.00
24666;BME280;29726;53.532;-1.478;2023-02-15T03:10:37;101188.34;;;11.67;100.00
24666;BME280;29726;53.532;-1.478;2023-02-15T03:13:23;101183.97;;;11.66;100.00
24666;BME280;29726;53.532;-1.478;2023-02-15T03:16:09;101168.72;;;11.58;100.00
24666;BME280;29726;53.532;-1.478;2023-02-15T03:19:26;101174.31;;;11.58;100.00
24666;BME280;29726;53.532;-1.478;2023-02-15T03:22:16;101180.69;;;11.58;100.00
24666;BME280;29726;53.532;-1.478;2023-02-15T03:25:31;101152.00;;;11.46;100.00
24666;BME280;29726;53.532;-1.478;2023-02-15T03:28:17;101167.25;;;11.53;100.00
24666;BME280;29726;53.532;-1.478;2023-02-15T03:31:05;101160.41;;;11.46;100.00
24666;BME280;29726;53.532;-1.478;2023-02-15T03:33:59;101142.19;;;11.41;100.00
24666;BME280;29726;53.532;-1.478;2023-02-15T03:36:52;101156.69;;;11.49;100.00
24666;BME280;29726;53.532;-1.478;2023-02-15T03:39:46;101145.63;;;11.45;100.00
24666;BME280;29726;53.532;-1.478;2023-02-15T03:42:35;101131.16;;;11.38;100.00
24666;BME280;29726;53.532;-1.478;2023-02-15T03:45:25;101121.94;;;11.28;100.00
24666;BME280;29726;53.532;-1.478;2023-02-15T03:48:12;101115.13;;;11.29;100.00
24666;BME280;29726;53.532;-1.478;2023-02-15T03:51:02;101116.66;;;11.30;100.00
24666;BME280;29726;53.532;-1.478;2023-02-15T03:54:13;101095.63;;;11.17;100.00
24666;BME280;29726;53.532;-1.478;2023-02-15T03:57:19;101116.50;;;11.34;100.00
24666;BME280;29726;53.532;-1.478;2023-02-15T04:00:24;101102.63;;;11.21;100.00
24666;BME280;29726;53.532;-1.478;2023-02-15T04:03:38;101119.47;;;11.30;100.00
24666;BME280;29726;53.532;-1.478;2023-02-15T04:06:22;101124.41;;;11.26;100.00
24666;BME280;29726;53.532;-1.478;2023-02-15T04:09:07;101098.13;;;11.15;100.00
24666;BME280;29726;53.532;-1.478;2023-02-15T04:12:10;101097.00;;;11.12;100.00
24666;BME280;29726;53.532;-1.478;2023-02-15T04:14:54;101093.72;;;11.14;100.00
24666;BME280;29726;53.532;-1.478;2023-02-15T04:17:57;101077.41;;;11.03;100.00
24666;BME280;29726;53.532;-1.478;2023-02-15T04:20:45;101092.69;;;11.20;100.00
24666;BME280;29726;53.532;-1.478;2023-02-15T04:23:48;101083.34;;;11.14;100.00
24666;BME280;29726;53.532;-1.478;2023-02-15T04:26:50;101069.81;;;11.13;100.00
24666;BME280;29726;53.532;-1.478;2023-02-15T04:29:37;101070.63;;;11.13;100.00
24666;BME280;29726;53.532;-1.478;2023-02-15T04:32:21;101064.38;;;11.09;100.00
24666;BME280;29726;53.532;-1.478;2023-02-15T04:35:06;101055.81;;;11.04;100.00
24666;BME280;29726;53.532;-1.478;2023-02-15T04:37:50;101055.22;;;11.09;100.00
24666;BME280;29726;53.532;-1.478;2023-02-15T04:40:34;101043.88;;;11.03;100.00
24666;BME280;29726;53.532;-1.478;2023-02-15T04:43:19;101056.00;;;11.09;100.00
24666;BME280;29726;53.532;-1.478;2023-02-15T04:46:03;101041.72;;;11.07;100.00
24666;BME280;29726;53.532;-1.478;2023-02-15T04:48:47;101036.88;;;11.08;100.00
24666;BME280;29726;53.532;-1.478;2023-02-15T04:51:31;101025.81;;;10.95;100.00
24666;BME280;29726;53.532;-1.478;2023-02-15T04:54:15;101046.19;;;11.05;100.00
24666;BME280;29726;53.532;-1.478;2023-02-15T04:56:59;100992.78;;;10.72;100.00
24666;BME280;29726;53.532;-1.478;2023-02-15T04:59:43;101031.06;;;10.93;100.00
24666;BME280;29726;53.532;-1.478;2023-02-15T05:02:27;101021.78;;;10.96;100.00
24666;BME280;29726;53.532;-1.478;2023-02-15T05:05:11;101039.16;;;11.00;100.00
24666;BME280;29726;53.532;-1.478;2023-02-15T05:07:56;101019.13;;;10.93;100.00
24666;BME280;29726;53.532;-1.478;2023-02-15T05:10:40;101045.09;;;11.02;100.00
24666;BME280;29726;53.532;-1.478;2023-02-15T05:13:24;101023.16;;;10.92;100.00
24666;BME280;29726;53.532;-1.478;2023-02-15T05:16:09;101025.34;;;10.97;100.00
24666;BME280;29726;53.532;-1.478;2023-02-15T05:18:52;101026.13;;;10.97;100.00
24666;BME280;29726;53.532;-1.478;2023-02-15T05:21:36;101009.63;;;10.90;100.00
24666;BME280;29726;53.532;-1.478;2023-02-15T05:24:20;101000.47;;;10.90;100.00
24666;BME280;29726;53.532;-1.478;2023-02-15T05:27:23;101017.09;;;10.93;100.00
24666;BME280;29726;53.532;-1.478;2023-02-15T05:30:26;101022.56;;;10.97;100.00
24666;BME280;29726;53.532;-1.478;2023-02-15T05:33:10;101005.56;;;10.82;100.00
24666;BME280;29726;53.532;-1.478;2023-02-15T05:35:54;101024.56;;;10.96;100.00
24666;BME280;29726;53.532;-1.478;2023-02-15T05:38:38;101023.47;;;10.94;100.00
24666;BME280;29726;53.532;-1.478;2023-02-15T05:41:22;101014.44;;;10.90;100.00
24666;BME280;29726;53.532;-1.478;2023-02-15T05:44:06;101002.06;;;10.91;100.00
24666;BME280;29726;53.532;-1.478;2023-02-15T05:46:50;101005.28;;;10.89;100.00
24666;BME280;29726;53.532;-1.478;2023-02-15T05:49:34;101010.09;;;10.89;100.00
24666;BME280;29726;53.532;-1.478;2023-02-15T05:52:19;100986.03;;;10.82;100.00
24666;BME280;29726;53.532;-1.478;2023-02-15T05:55:04;100991.47;;;10.86;100.00
24666;BME280;29726;53.532;-1.478;2023-02-15T05:57:48;100985.44;;;10.87;100.00
24666;BME280;29726;53.532;-1.478;2023-02-15T06:00:33;100982.00;;;10.83;100.00
24666;BME280;29726;53.532;-1.478;2023-02-15T06:03:17;100960.88;;;10.82;100.00
24666;BME280;29726;53.532;-1.478;2023-02-15T06:06:01;100914.19;;;10.52;100.00
24666;BME280;29726;53.532;-1.478;2023-02-15T06:08:48;100948.91;;;10.73;100.00
24666;BME280;29726;53.532;-1.478;2023-02-15T06:11:32;100957.78;;;10.80;100.00
24666;BME280;29726;53.532;-1.478;2023-02-15T06:14:16;100961.66;;;10.83;100.00
24666;BME280;29726;53.532;-1.478;2023-02-15T06:17:00;100947.84;;;10.79;100.00
24666;BME280;29726;53.532;-1.478;2023-02-15T06:19:44;100951.28;;;10.83;100.00
24666;BME280;29726;53.532;-1.478;2023-02-15T06:22:28;100950.28;;;10.77;100.00
24666;BME280;29726;53.532;-1.478;2023-02-15T06:25:12;100953.44;;;10.79;100.00
24666;BME280;29726;53.532;-1.478;2023-02-15T06:27:56;100962.69;;;10.76;100.00
24666;BME280;29726;53.532;-1.478;2023-02-15T06:30:40;100975.78;;;10.79;100.00
24666;BME280;29726;53.532;-1.478;2023-02-15T06:33:24;100984.91;;;10.80;100.00
24666;BME280;29726;53.532;-1.478;2023-02-15T06:36:08;100983.81;;;10.77;100.00
24666;BME280;29726;53.532;-1.478;2023-02-15T06:38:52;100987.50;;;10.74;100.00
24666;BME280;29726;53.532;-1.478;2023-02-15T06:41:36;100994.97;;;10.77;100.00
24666;BME280;29726;53.532;-1.478;2023-02-15T06:44:20;100987.50;;;10.74;100.00
24666;BME280;29726;53.532;-1.478;2023-02-15T06:47:04;100982.84;;;10.71;100.00
24666;BME280;29726;53.532;-1.478;2023-02-15T06:49:48;100982.53;;;10.69;100.00
24666;BME280;29726;53.532;-1.478;2023-02-15T06:52:32;100957.59;;;10.53;100.00
24666;BME280;29726;53.532;-1.478;2023-02-15T06:55:16;100945.06;;;10.58;100.00
24666;BME280;29726;53.532;-1.478;2023-02-15T06:58:00;100957.06;;;10.67;100.00
24666;BME280;29726;53.532;-1.478;2023-02-15T07:00:44;100956.75;;;10.65;100.00
24666;BME280;29726;53.532;-1.478;2023-02-15T07:03:28;100953.56;;;10.54;100.00
24666;BME280;29726;53.532;-1.478;2023-02-15T07:06:12;100941.66;;;10.54;100.00
24666;BME280;29726;53.532;-1.478;2023-02-15T07:08:56;100882.97;;;10.14;100.00
24666;BME280;29726;53.532;-1.478;2023-02-15T07:11:40;100954.81;;;10.53;100.00
24666;BME280;29726;53.532;-1.478;2023-02-15T07:14:43;100950.47;;;10.52;100.00
24666;BME280;29726;53.532;-1.478;2023-02-15T07:17:27;100937.75;;;10.51;100.00
24666;BME280;29726;53.532;-1.478;2023-02-15T07:20:17;100940.84;;;10.53;100.00
24666;BME280;29726;53.532;-1.478;2023-02-15T07:23:03;100917.69;;;10.44;100.00
24666;BME280;29726;53.532;-1.478;2023-02-15T07:25:47;100912.25;;;10.40;100.00
24666;BME280;29726;53.532;-1.478;2023-02-15T07:28:31;100917.38;;;10.42;100.00
24666;BME280;29726;53.532;-1.478;2023-02-15T07:31:15;100919.53;;;10.38;100.00
24666;BME280;29726;53.532;-1.478;2023-02-15T07:33:59;100927.97;;;10.47;100.00
24666;BME280;29726;53.532;-1.478;2023-02-15T07:36:43;100922.19;;;10.41;100.00
24666;BME280;29726;53.532;-1.478;2023-02-15T07:39:27;100943.59;;;10.44;100.00
24666;BME280;29726;53.532;-1.478;2023-02-15T07:42:11;100944.53;;;10.41;100.00
24666;BME280;29726;53.532;-1.478;2023-02-15T07:44:55;100934.59;;;10.40;100.00
24666;BME280;29726;53.532;-1.478;2023-02-15T07:47:39;100906.16;;;10.33;100.00
24666;BME280;29726;53.532;-1.478;2023-02-15T07:50:23;100903.25;;;10.36;100.00
24666;BME280;29726;53.532;-1.478;2023-02-15T07:53:07;100892.84;;;10.37;100.00
24666;BME280;29726;53.532;-1.478;2023-02-15T07:55:51;100894.88;;;10.36;100.00
24666;BME280;29726;53.532;-1.478;2023-02-15T07:58:36;100892.72;;;10.40;100.00
24666;BME280;29726;53.532;-1.478;2023-02-15T08:01:37;100891.94;;;10.40;100.00
24666;BME280;29726;53.532;-1.478;2023-02-15T08:04:21;100856.97;;;10.26;100.00
24666;BME280;29726;53.532;-1.478;2023-02-15T08:07:05;100836.81;;;10.22;100.00
24666;BME280;29726;53.532;-1.478;2023-02-15T08:09:50;100855.97;;;10.42;100.00
24666;BME280;29726;53.532;-1.478;2023-02-15T08:12:34;100852.09;;;10.39;100.00
24666;BME280;29726;53.532;-1.478;2023-02-15T08:15:18;100848.06;;;10.40;100.00
24666;BME280;29726;53.532;-1.478;2023-02-15T08:18:02;100836.91;;;10.40;100.00
24666;BME280;29726;53.532;-1.478;2023-02-15T08:20:49;100726.34;;;9.73;100.00
24666;BME280;29726;53.532;-1.478;2023-02-15T08:23:33;100819.56;;;10.45;100.00
24666;BME280;29726;53.532;-1.478;2023-02-15T08:26:17;100744.09;;;10.09;100.00
24666;BME280;29726;53.532;-1.478;2023-02-15T08:29:02;100804.88;;;10.54;100.00
24666;BME280;29726;53.532;-1.478;2023-02-15T08:31:47;100806.25;;;10.49;100.00
24666;BME280;29726;53.532;-1.478;2023-02-15T08:34:34;100790.28;;;10.50;100.00
24666;BME280;29726;53.532;-1.478;2023-02-15T08:37:19;100784.28;;;10.60;100.00
24666;BME280;29726;53.532;-1.478;2023-02-15T08:40:03;100784.75;;;10.68;100.00
24666;BME280;29726;53.532;-1.478;2023-02-15T08:42:48;100796.09;;;10.73;100.00
24666;BME280;29726;53.532;-1.478;2023-02-15T08:45:32;100805.56;;;10.85;100.00
24666;BME280;29726;53.532;-1.478;2023-02-15T08:48:16;100792.41;;;10.85;100.00
24666;BME280;29726;53.532;-1.478;2023-02-15T08:51:14;100707.63;;;10.43;100.00
24666;BME280;29726;53.532;-1.478;2023-02-15T08:54:01;100778.75;;;10.96;100.00
24666;BME280;29726;53.532;-1.478;2023-02-15T08:56:45;100778.63;;;11.00;100.00
24666;BME280;29726;53.532;-1.478;2023-02-15T08:59:30;100785.63;;;11.13;100.00
24666;BME280;29726;53.532;-1.478;2023-02-15T09:02:14;100786.84;;;11.12;100.00
24666;BME280;29726;53.532;-1.478;2023-02-15T09:04:58;100774.59;;;11.19;100.00
24666;BME280;29726;53.532;-1.478;2023-02-15T09:07:42;100811.84;;;11.34;100.00
24666;BME280;29726;53.532;-1.478;2023-02-15T09:10:26;100786.25;;;11.35;100.00
24666;BME280;29726;53.532;-1.478;2023-02-15T09:13:10;100799.91;;;11.42;100.00
24666;BME280;29726;53.532;-1.478;2023-02-15T09:16:02;100804.56;;;11.54;100.00
24666;BME280;29726;53.532;-1.478;2023-02-15T09:18:46;100802.72;;;11.60;100.00
24666;BME280;29726;53.532;-1.478;2023-02-15T09:21:32;100799.16;;;11.68;100.00
24666;BME280;29726;53.532;-1.478;2023-02-15T09:24:17;100790.44;;;11.75;100.00
24666;BME280;29726;53.532;-1.478;2023-02-15T09:27:01;100776.00;;;11.68;100.00
24666;BME280;29726;53.532;-1.478;2023-02-15T09:29:45;100784.03;;;11.84;100.00
24666;BME280;29726;53.532;-1.478;2023-02-15T09:32:29;100776.88;;;12.01;100.00
24666;BME280;29726;53.532;-1.478;2023-02-15T09:35:13;100759.63;;;11.93;100.00
24666;BME280;29726;53.532;-1.478;2023-02-15T09:37:57;100704.97;;;11.74;100.00
24666;BME280;29726;53.532;-1.478;2023-02-15T09:40:51;100771.34;;;12.24;100.00
24666;BME280;29726;53.532;-1.478;2023-02-15T09:56:21;100735.44;;;12.79;100.00
24666;BME280;29726;53.532;-1.478;2023-02-15T09:59:23;100680.34;;;12.52;100.00
24666;BME280;29726;53.532;-1.478;2023-02-15T10:09:17;100716.47;;;13.21;100.00
24666;BME280;29726;53.532;-1.478;2023-02-15T10:18:53;100720.38;;;13.52;100.00
24666;BME280;29726;53.532;-1.478;2023-02-15T10:22:23;100711.69;;;13.64;100.00
24666;BME280;29726;53.532;-1.478;2023-02-15T10:28:06;100698.72;;;13.81;100.00
24666;BME280;29726;53.532;-1.478;2023-02-15T10:31:19;100717.09;;;13.97;100.00
24666;BME280;29726;53.532;-1.478;2023-02-15T10:34:18;100705.75;;;14.06;100.00
24666;BME280;29726;53.532;-1.478;2023-02-15T10:46:15;100718.66;;;14.47;100.00
24666;BME280;29726;53.532;-1.478;2023-02-15T10:55:48;100718.56;;;14.76;100.00
24666;BME280;29726;53.532;-1.478;2023-02-15T11:01:45;100688.13;;;14.94;100.00
24666;BME280;29726;53.532;-1.478;2023-02-15T11:07:33;100685.25;;;15.08;100.00
24666;BME280;29726;53.532;-1.478;2023-02-15T11:10:27;100697.41;;;15.20;100.00
24666;BME280;29726;53.532;-1.478;2023-02-15T11:13:18;100707.25;;;15.30;100.00
24666;BME280;29726;53.532;-1.478;2023-02-15T11:16:17;100698.34;;;15.37;100.00
24666;BME280;29726;53.532;-1.478;2023-02-15T11:19:11;100702.00;;;15.43;100.00
24666;BME280;29726;53.532;-1.478;2023-02-15T11:22:04;100699.25;;;15.48;100.00
24666;BME280;29726;53.532;-1.478;2023-02-15T11:24:49;100704.75;;;15.63;100.00
24666;BME280;29726;53.532;-1.478;2023-02-15T11:27:33;100717.41;;;15.73;100.00
24666;BME280;29726;53.532;-1.478;2023-02-15T11:30:21;100714.34;;;15.76;100.00
24666;BME280;29726;53.532;-1.478;2023-02-15T11:33:24;100716.50;;;15.87;100.00
24666;BME280;29726;53.532;-1.478;2023-02-15T11:36:43;100710.47;;;15.99;100.00
24666;BME280;29726;53.532;-1.478;2023-02-15T11:39:28;100698.97;;;16.03;100.00
24666;BME280;29726;53.532;-1.478;2023-02-15T11:42:20;100700.84;;;16.11;100.00
24666;BME280;29726;53.532;-1.478;2023-02-15T11:45:28;100704.78;;;16.25;100.00
24666;BME280;29726;53.532;-1.478;2023-02-15T11:48:14;100647.47;;;15.97;100.00
24666;BME280;29726;53.532;-1.478;2023-02-15T11:51:00;100689.28;;;16.40;100.00
24666;BME280;29726;53.532;-1.478;2023-02-15T11:53:48;100700.88;;;16.48;100.00
24666;BME280;29726;53.532;-1.478;2023-02-15T11:56:33;100690.38;;;16.54;100.00
24666;BME280;29726;53.532;-1.478;2023-02-15T11:59:29;100683.47;;;16.55;100.00
24666;BME280;29726;53.532;-1.478;2023-02-15T12:02:21;100704.56;;;16.65;100.00
24666;BME280;29726;53.532;-1.478;2023-02-15T12:05:13;100691.75;;;16.64;100.00
24666;BME280;29726;53.532;-1.478;2023-02-15T12:08:43;100683.06;;;16.73;100.00
24666;BME280;29726;53.532;-1.478;2023-02-15T12:11:34;100685.13;;;16.77;100.00
24666;BME280;29726;53.532;-1.478;2023-02-15T12:14:19;100636.84;;;16.54;100.00
24666;BME280;29726;53.532;-1.478;2023-02-15T12:17:12;100691.34;;;16.92;100.00
24666;BME280;29726;53.532;-1.478;2023-02-15T12:20:00;100686.50;;;16.98;100.00
24666;BME280;29726;53.532;-1.478;2023-02-15T12:22:55;100660.59;;;16.94;100.00
24666;BME280;29726;53.532;-1.478;2023-02-15T12:25:51;100667.28;;;17.02;100.00
24666;BME280;29726;53.532;-1.478;2023-02-15T12:28:42;100666.81;;;17.15;100.00
24666;BME280;29726;53.532;-1.478;2023-02-15T12:31:33;100671.44;;;17.23;100.00
24666;BME280;29726;53.532;-1.478;2023-02-15T12:34:27;100669.66;;;17.26;100.00
24666;BME280;29726;53.532;-1.478;2023-02-15T12:37:19;100685.38;;;17.38;100.00
24666;BME280;29726;53.532;-1.478;2023-02-15T12:40:26;100680.25;;;17.42;100.00
24666;BME280;29726;53.532;-1.478;2023-02-15T12:43:31;100691.03;;;17.43;100.00
24666;BME280;29726;53.532;-1.478;2023-02-15T12:46:24;100701.06;;;17.55;100.00
24666;BME280;29726;53.532;-1.478;2023-02-15T12:52:01;100713.16;;;17.61;100.00
24666;BME280;29726;53.532;-1.478;2023-02-15T12:54:46;100731.88;;;17.64;100.00
24666;BME280;29726;53.532;-1.478;2023-02-15T12:57:32;100705.19;;;17.54;100.00
24666;BME280;29726;53.532;-1.478;2023-02-15T13:03:04;100734.97;;;17.66;100.00
24666;BME280;29726;53.532;-1.478;2023-02-15T13:05:53;100720.59;;;17.70;100.00
24666;BME280;29726;53.532;-1.478;2023-02-15T13:08:51;100726.00;;;17.68;100.00
24666;BME280;29726;53.532;-1.478;2023-02-15T13:11:36;100720.59;;;17.70;100.00
24666;BME280;29726;53.532;-1.478;2023-02-15T13:17:13;100717.00;;;17.75;100.00
24666;BME280;29726;53.532;-1.478;2023-02-15T13:20:17;100717.00;;;17.75;100.00
24666;BME280;29726;53.532;-1.478;2023-02-15T13:23:04;100737.06;;;17.82;100.00
24666;BME280;29726;53.532;-1.478;2023-02-15T13:25:50;100732.94;;;17.83;100.00
24666;BME280;29726;53.532;-1.478;2023-02-15T13:28:42;100718.81;;;17.78;100.00
24666;BME280;29726;53.532;-1.478;2023-02-15T13:31:29;100745.53;;;17.93;100.00
24666;BME280;29726;53.532;-1.478;2023-02-15T13:34:24;100746.03;;;17.97;100.00
24666;BME280;29726;53.532;-1.478;2023-02-15T13:37:20;100747.34;;;18.02;100.00
24666;BME280;29726;53.532;-1.478;2023-02-15T13:40:17;100735.78;;;18.05;100.00
24666;BME280;29726;53.532;-1.478;2023-02-15T13:46:22;100733.22;;;18.13;100.00
24666;BME280;29726;53.532;-1.478;2023-02-15T13:49:39;100735.50;;;18.09;100.00
24666;BME280;29726;53.532;-1.478;2023-02-15T13:52:34;100743.22;;;18.08;100.00
24666;BME280;29726;53.532;-1.478;2023-02-15T13:55:38;100752.72;;;17.94;100.00
24666;BME280;29726;53.532;-1.478;2023-02-15T13:58:58;100736.78;;;17.75;100.00
24666;BME280;29726;53.532;-1.478;2023-02-15T14:09:09;100733.47;;;17.76;100.00
24666;BME280;29726;53.532;-1.478;2023-02-15T14:12:23;100734.47;;;17.79;100.00
24666;BME280;29726;53.532;-1.478;2023-02-15T14:15:34;100737.06;;;17.82;100.00
24666;BME280;29726;53.532;-1.478;2023-02-15T14:21:48;100727.56;;;17.85;100.00
24666;BME280;29726;53.532;-1.478;2023-02-15T14:24:43;100727.03;;;17.81;100.00
24666;BME280;29726;53.532;-1.478;2023-02-15T14:30:49;100749.91;;;17.89;100.00
24666;BME280;29726;53.532;-1.478;2023-02-15T14:33:39;100737.31;;;17.84;100.00
24666;BME280;29726;53.532;-1.478;2023-02-15T14:36:25;100739.63;;;17.91;100.00
24666;BME280;29726;53.532;-1.478;2023-02-15T14:39:31;100746.06;;;17.92;100.00
24666;BME280;29726;53.532;-1.478;2023-02-15T14:42:56;100728.56;;;17.82;100.00
24666;BME280;29726;53.532;-1.478;2023-02-15T14:45:55;100745.28;;;17.97;100.00
24666;BME280;29726;53.532;-1.478;2023-02-15T14:48:52;100733.97;;;17.91;100.00
24666;BME280;29726;53.532;-1.478;2023-02-15T14:57:21;100749.66;;;17.98;100.00
24666;BME280;29726;53.532;-1.478;2023-02-15T15:00:30;100750.41;;;17.98;100.00
24666;BME280;29726;53.532;-1.478;2023-02-15T15:03:21;100753.75;;;17.97;100.00
24666;BME280;29726;53.532;-1.478;2023-02-15T15:06:27;100749.38;;;17.90;100.00
24666;BME280;29726;53.532;-1.478;2023-02-15T15:09:20;100768.63;;;17.97;100.00
24666;BME280;29726;53.532;-1.478;2023-02-15T15:12:37;100766.34;;;17.96;100.00
24666;BME280;29726;53.532;-1.478;2023-02-15T15:18:46;100751.69;;;17.97;100.00
24666;BME280;29726;53.532;-1.478;2023-02-15T15:21:52;100750.94;;;17.97;100.00
24666;BME280;29726;53.532;-1.478;2023-02-15T15:27:41;100758.38;;;18.00;100.00
24666;BME280;29726;53.532;-1.478;2023-02-15T15:33:30;100761.72;;;17.98;100.00
24666;BME280;29726;53.532;-1.478;2023-02-15T15:45:52;100788.41;;;17.97;100.00
24666;BME280;29726;53.532;-1.478;2023-02-15T15:48:41;100772.75;;;17.91;100.00
24666;BME280;29726;53.532;-1.478;2023-02-15T15:51:31;100808.19;;;17.97;100.00
24666;BME280;29726;53.532;-1.478;2023-02-15T15:54:22;100803.06;;;17.96;100.00
24666;BME280;29726;53.532;-1.478;2023-02-15T15:57:48;100780.44;;;17.85;100.00
24666;BME280;29726;53.532;-1.478;2023-02-15T16:03:26;100792.25;;;17.83;100.00
24666;BME280;29726;53.532;-1.478;2023-02-15T16:06:13;100816.16;;;17.93;100.00
24666;BME280;29726;53.532;-1.478;2023-02-15T16:09:19;100818.22;;;17.93;100.00
24666;BME280;29726;53.532;-1.478;2023-02-15T16:12:04;100820.28;;;17.87;100.00
24666;BME280;29726;53.532;-1.478;2023-02-15T16:14:57;100828.75;;;17.87;100.00
24666;BME280;29726;53.532;-1.478;2023-02-15T16:17:48;100842.59;;;17.90;100.00
24666;BME280;29726;53.532;-1.478;2023-02-15T16:20:35;100827.16;;;17.86;100.00
24666;BME280;29726;53.532;-1.478;2023-02-15T16:23:47;100836.44;;;17.86;100.00
24666;BME280;29726;53.532;-1.478;2023-02-15T16:26:44;100845.41;;;17.85;100.00
24666;BME280;29726;53.532;-1.478;2023-02-15T16:29:32;100838.75;;;17.82;100.00